sensor_id;sensor_type;location;lat;lon;timestamp;temperature;humidity
60727;DHT22;46577;49.004;12.120;2022-10-17T00:02:25;14.70;99.90
60727;DHT22;46577;49.004;12.120;2022-10-17T00:04:50;14.70;99.90
60727;DHT22;46577;49.004;12.120;2022-10-17T00:07:16;14.70;99.90
60727;DHT22;46577;49.004;12.120;2022-10-17T00:09:42;14.80;99.90
60727;DHT22;46577;49.004;12.120;2022-10-17T00:12:08;14.70;99.90
60727;DHT22;46577;49.004;12.120;2022-10-17T00:14:34;14.70;99.90
60727;DHT22;46577;49.004;12.120;2022-10-17T00:17:00;14.70;99.90
60727;DHT22;46577;49.004;12.120;2022-10-17T00:19:25;14.70;99.90
60727;DHT22;46577;49.004;12.120;2022-10-17T00:21:51;14.70;99.90
60727;DHT22;46577;49.004;12.120;2022-10-17T00:24:16;14.70;99.90
60727;DHT22;46577;49.004;12.120;2022-10-17T00:26:42;14.70;99.90
60727;DHT22;46577;49.004;12.120;2022-10-17T00:29:07;14.80;99.90
60727;DHT22;46577;49.004;12.120;2022-10-17T00:31:33;14.70;99.90
60727;DHT22;46577;49.004;12.120;2022-10-17T00:34:00;14.70;99.90
60727;DHT22;46577;49.004;12.120;2022-10-17T00:36:26;14.70;99.90
60727;DHT22;46577;49.004;12.120;2022-10-17T00:38:56;14.70;99.90
60727;DHT22;46577;49.004;12.120;2022-10-17T00:41:26;14.70;99.90
60727;DHT22;46577;49.004;12.120;2022-10-17T00:44:02;14.60;99.90
60727;DHT22;46577;49.004;12.120;2022-10-17T00:46:36;14.60;99.90
60727;DHT22;46577;49.004;12.120;2022-10-17T00:49:10;14.60;99.90
60727;DHT22;46577;49.004;12.120;2022-10-17T00:51:47;14.70;99.90
60727;DHT22;46577;49.004;12.120;2022-10-17T00:54:16;13.30;99.90
60727;DHT22;46577;49.004;12.120;2022-10-17T00:56:44;14.70;99.90
60727;DHT22;46577;49.004;12.120;2022-10-17T00:59:12;14.60;99.90
60727;DHT22;46577;49.004;12.120;2022-10-17T01:01:40;14.70;99.90
60727;DHT22;46577;49.004;12.120;2022-10-17T01:04:07;14.60;99.90
60727;DHT22;46577;49.004;12.120;2022-10-17T01:06:33;14.60;99.90
60727;DHT22;46577;49.004;12.120;2022-10-17T01:08:58;14.60;99.90
60727;DHT22;46577;49.004;12.120;2022-10-17T01:13:58;14.50;99.90
60727;DHT22;46577;49.004;12.120;2022-10-17T01:16:28;14.50;99.90
60727;DHT22;46577;49.004;12.120;2022-10-17T01:21:59;14.40;99.90
60727;DHT22;46577;49.004;12.120;2022-10-17T01:35:49;14.10;99.90
60727;DHT22;46577;49.004;12.120;2022-10-17T01:39:08;14.10;99.90
60727;DHT22;46577;49.004;12.120;2022-10-17T01:41:40;14.10;99.90
60727;DHT22;46577;49.004;12.120;2022-10-17T01:46:40;14.00;99.90
60727;DHT22;46577;49.004;12.120;2022-10-17T01:49:09;13.90;99.90
60727;DHT22;46577;49.004;12.120;2022-10-17T01:51:45;13.90;99.90
60727;DHT22;46577;49.004;12.120;2022-10-17T01:54:43;13.80;99.90
60727;DHT22;46577;49.004;12.120;2022-10-17T01:57:17;13.80;99.90
60727;DHT22;46577;49.004;12.120;2022-10-17T01:59:45;13.70;99.90
60727;DHT22;46577;49.004;12.120;2022-10-17T02:02:13;13.70;99.90
60727;DHT22;46577;49.004;12.120;2022-10-17T02:04:41;13.70;99.90
60727;DHT22;46577;49.004;12.120;2022-10-17T02:07:11;13.70;99.90
60727;DHT22;46577;49.004;12.120;2022-10-17T02:09:38;13.70;99.90
60727;DHT22;46577;49.004;12.120;2022-10-17T02:12:11;13.60;99.90
60727;DHT22;46577;49.004;12.120;2022-10-17T02:17:53;13.60;99.90
60727;DHT22;46577;49.004;12.120;2022-10-17T02:20:30;13.60;99.90
60727;DHT22;46577;49.004;12.120;2022-10-17T02:23:06;13.50;99.90
60727;DHT22;46577;49.004;12.120;2022-10-17T02:25:41;13.50;99.90
60727;DHT22;46577;49.004;12.120;2022-10-17T02:28:46;13.50;99.90
60727;DHT22;46577;49.004;12.120;2022-10-17T02:31:19;13.50;99.90
60727;DHT22;46577;49.004;12.120;2022-10-17T02:36:14;13.40;99.90
60727;DHT22;46577;49.004;12.120;2022-10-17T02:38:42;13.30;99.90
60727;DHT22;46577;49.004;12.120;2022-10-17T02:41:10;13.30;99.90
60727;DHT22;46577;49.004;12.120;2022-10-17T02:43:37;13.30;99.90
60727;DHT22;46577;49.004;12.120;2022-10-17T02:46:04;13.20;99.90
60727;DHT22;46577;49.004;12.120;2022-10-17T02:48:39;13.30;99.90
60727;DHT22;46577;49.004;12.120;2022-10-17T02:51:27;13.10;99.90
60727;DHT22;46577;49.004;12.120;2022-10-17T02:54:03;13.10;99.90
60727;DHT22;46577;49.004;12.120;2022-10-17T02:56:52;13.10;99.90
60727;DHT22;46577;49.004;12.120;2022-10-17T02:59:20;13.00;99.90
60727;DHT22;46577;49.004;12.120;2022-10-17T03:01:48;13.00;99.90
60727;DHT22;46577;49.004;12.120;2022-10-17T03:04:16;12.90;99.90
60727;DHT22;46577;49.004;12.120;2022-10-17T03:06:44;12.90;99.90
60727;DHT22;46577;49.004;12.120;2022-10-17T03:09:10;12.90;99.90
60727;DHT22;46577;49.004;12.120;2022-10-17T03:11:36;12.80;99.90
60727;DHT22;46577;49.004;12.120;2022-10-17T03:14:02;12.80;99.90
60727;DHT22;46577;49.004;12.120;2022-10-17T03:16:28;12.80;99.90
60727;DHT22;46577;49.004;12.120;2022-10-17T03:18:54;12.90;99.90
60727;DHT22;46577;49.004;12.120;2022-10-17T03:21:19;12.80;99.90
60727;DHT22;46577;49.004;12.120;2022-10-17T03:23:45;12.70;99.90
60727;DHT22;46577;49.004;12.120;2022-10-17T03:26:11;12.70;99.90
60727;DHT22;46577;49.004;12.120;2022-10-17T03:28:36;12.70;99.90
60727;DHT22;46577;49.004;12.120;2022-10-17T03:31:06;12.60;99.90
60727;DHT22;46577;49.004;12.120;2022-10-17T03:33:32;12.60;99.90
60727;DHT22;46577;49.004;12.120;2022-10-17T03:35:57;12.60;99.90
60727;DHT22;46577;49.004;12.120;2022-10-17T03:38:23;12.60;99.90
60727;DHT22;46577;49.004;12.120;2022-10-17T03:40:54;12.60;99.90
60727;DHT22;46577;49.004;12.120;2022-10-17T03:43:20;12.50;99.90
60727;DHT22;46577;49.004;12.120;2022-10-17T03:45:46;12.50;99.90
60727;DHT22;46577;49.004;12.120;2022-10-17T03:48:11;12.50;99.90
60727;DHT22;46577;49.004;12.120;2022-10-17T03:50:37;12.50;99.90
60727;DHT22;46577;49.004;12.120;2022-10-17T03:53:02;12.50;99.90
60727;DHT22;46577;49.004;12.120;2022-10-17T03:55:28;12.40;99.90
60727;DHT22;46577;49.004;12.120;2022-10-17T03:57:54;12.40;99.90
60727;DHT22;46577;49.004;12.120;2022-10-17T04:00:19;12.40;99.90
60727;DHT22;46577;49.004;12.120;2022-10-17T04:02:45;12.30;99.90
60727;DHT22;46577;49.004;12.120;2022-10-17T04:05:10;12.40;99.90
60727;DHT22;46577;49.004;12.120;2022-10-17T04:07:36;12.30;99.90
60727;DHT22;46577;49.004;12.120;2022-10-17T04:10:03;12.30;99.90
60727;DHT22;46577;49.004;12.120;2022-10-17T04:12:29;12.30;99.90
60727;DHT22;46577;49.004;12.120;2022-10-17T04:14:54;12.20;99.90
60727;DHT22;46577;49.004;12.120;2022-10-17T04:17:20;12.10;99.90
60727;DHT22;46577;49.004;12.120;2022-10-17T04:19:45;12.10;99.90
60727;DHT22;46577;49.004;12.120;2022-10-17T04:22:11;12.10;99.90
60727;DHT22;46577;49.004;12.120;2022-10-17T04:24:36;12.10;99.90
60727;DHT22;46577;49.004;12.120;2022-10-17T04:27:02;12.10;99.90
60727;DHT22;46577;49.004;12.120;2022-10-17T04:29:28;12.10;99.90
60727;DHT22;46577;49.004;12.120;2022-10-17T04:31:53;12.00;99.90
60727;DHT22;46577;49.004;12.120;2022-10-17T04:34:20;12.00;99.90
60727;DHT22;46577;49.004;12.120;2022-10-17T04:36:46;12.00;99.90
60727;DHT22;46577;49.004;12.120;2022-10-17T04:39:11;11.90;99.90
60727;DHT22;46577;49.004;12.120;2022-10-17T04:41:37;12.00;99.90
60727;DHT22;46577;49.004;12.120;2022-10-17T04:44:03;12.00;99.90
60727;DHT22;46577;49.004;12.120;2022-10-17T04:46:28;11.90;99.90
60727;DHT22;46577;49.004;12.120;2022-10-17T04:48:54;11.90;99.90
60727;DHT22;46577;49.004;12.120;2022-10-17T04:51:19;11.90;99.90
60727;DHT22;46577;49.004;12.120;2022-10-17T04:53:45;11.90;99.90
60727;DHT22;46577;49.004;12.120;2022-10-17T04:56:13;11.90;99.90
60727;DHT22;46577;49.004;12.120;2022-10-17T04:58:39;11.80;99.90
60727;DHT22;46577;49.004;12.120;2022-10-17T05:01:12;11.80;99.90
60727;DHT22;46577;49.004;12.120;2022-10-17T05:03:38;11.80;99.90
60727;DHT22;46577;49.004;12.120;2022-10-17T05:06:10;11.80;99.90
60727;DHT22;46577;49.004;12.120;2022-10-17T05:08:36;11.80;99.90
60727;DHT22;46577;49.004;12.120;2022-10-17T05:11:03;11.80;99.90
60727;DHT22;46577;49.004;12.120;2022-10-17T05:13:30;11.80;99.90
60727;DHT22;46577;49.004;12.120;2022-10-17T05:15:59;11.80;99.90
60727;DHT22;46577;49.004;12.120;2022-10-17T05:18:26;11.80;99.90
60727;DHT22;46577;49.004;12.120;2022-10-17T05:20:51;11.80;99.90
60727;DHT22;46577;49.004;12.120;2022-10-17T05:23:17;11.80;99.90
60727;DHT22;46577;49.004;12.120;2022-10-17T05:25:42;11.80;99.90
60727;DHT22;46577;49.004;12.120;2022-10-17T05:28:08;11.80;99.90
60727;DHT22;46577;49.004;12.120;2022-10-17T05:30:34;11.80;99.90
60727;DHT22;46577;49.004;12.120;2022-10-17T05:33:01;11.70;99.90
60727;DHT22;46577;49.004;12.120;2022-10-17T05:35:26;11.70;99.90
60727;DHT22;46577;49.004;12.120;2022-10-17T05:37:52;11.70;99.90
60727;DHT22;46577;49.004;12.120;2022-10-17T05:40:17;11.70;99.90
60727;DHT22;46577;49.004;12.120;2022-10-17T05:42:47;11.80;99.90
60727;DHT22;46577;49.004;12.120;2022-10-17T05:45:13;11.70;99.90
60727;DHT22;46577;49.004;12.120;2022-10-17T05:47:39;11.70;99.90
60727;DHT22;46577;49.004;12.120;2022-10-17T05:50:05;11.80;99.90
60727;DHT22;46577;49.004;12.120;2022-10-17T05:52:31;11.80;99.90
60727;DHT22;46577;49.004;12.120;2022-10-17T05:54:56;11.80;99.90
60727;DHT22;46577;49.004;12.120;2022-10-17T05:57:24;11.80;99.90
60727;DHT22;46577;49.004;12.120;2022-10-17T05:59:50;11.80;99.90
60727;DHT22;46577;49.004;12.120;2022-10-17T06:02:15;11.80;99.90
60727;DHT22;46577;49.004;12.120;2022-10-17T06:04:41;11.90;99.90
60727;DHT22;46577;49.004;12.120;2022-10-17T06:07:10;11.80;99.90
60727;DHT22;46577;49.004;12.120;2022-10-17T06:09:36;11.90;99.90
60727;DHT22;46577;49.004;12.120;2022-10-17T06:12:02;12.10;99.90
60727;DHT22;46577;49.004;12.120;2022-10-17T06:14:27;12.10;99.90
60727;DHT22;46577;49.004;12.120;2022-10-17T06:16:53;12.20;99.90
60727;DHT22;46577;49.004;12.120;2022-10-17T06:19:19;12.30;99.90
60727;DHT22;46577;49.004;12.120;2022-10-17T06:21:44;12.40;99.90
60727;DHT22;46577;49.004;12.120;2022-10-17T06:24:10;12.50;99.90
60727;DHT22;46577;49.004;12.120;2022-10-17T06:26:36;12.60;99.90
60727;DHT22;46577;49.004;12.120;2022-10-17T06:29:02;12.70;99.90
60727;DHT22;46577;49.004;12.120;2022-10-17T06:31:27;13.00;99.90
60727;DHT22;46577;49.004;12.120;2022-10-17T06:33:53;13.10;99.90
60727;DHT22;46577;49.004;12.120;2022-10-17T06:36:19;13.30;99.90
60727;DHT22;46577;49.004;12.120;2022-10-17T06:38:44;13.50;99.90
60727;DHT22;46577;49.004;12.120;2022-10-17T06:41:14;13.50;99.90
60727;DHT22;46577;49.004;12.120;2022-10-17T06:43:42;13.70;99.90
60727;DHT22;46577;49.004;12.120;2022-10-17T06:46:10;13.70;99.90
60727;DHT22;46577;49.004;12.120;2022-10-17T06:48:36;13.80;99.90
60727;DHT22;46577;49.004;12.120;2022-10-17T06:51:03;14.00;99.90
60727;DHT22;46577;49.004;12.120;2022-10-17T06:53:30;14.10;99.90
60727;DHT22;46577;49.004;12.120;2022-10-17T06:55:56;14.40;99.90
60727;DHT22;46577;49.004;12.120;2022-10-17T06:58:33;14.50;99.90
60727;DHT22;46577;49.004;12.120;2022-10-17T07:01:00;14.70;99.90
60727;DHT22;46577;49.004;12.120;2022-10-17T07:03:26;14.90;99.90
60727;DHT22;46577;49.004;12.120;2022-10-17T07:05:53;15.00;99.90
60727;DHT22;46577;49.004;12.120;2022-10-17T07:08:19;15.30;99.90
60727;DHT22;46577;49.004;12.120;2022-10-17T07:10:44;15.40;99.90
60727;DHT22;46577;49.004;12.120;2022-10-17T07:13:10;15.50;99.90
60727;DHT22;46577;49.004;12.120;2022-10-17T07:15:36;15.70;99.90
60727;DHT22;46577;49.004;12.120;2022-10-17T07:18:03;15.90;99.90
60727;DHT22;46577;49.004;12.120;2022-10-17T07:20:29;16.10;99.90
60727;DHT22;46577;49.004;12.120;2022-10-17T07:22:54;16.30;99.90
60727;DHT22;46577;49.004;12.120;2022-10-17T07:25:21;16.40;99.90
60727;DHT22;46577;49.004;12.120;2022-10-17T07:27:48;16.60;99.90
60727;DHT22;46577;49.004;12.120;2022-10-17T07:30:14;16.90;99.90
60727;DHT22;46577;49.004;12.120;2022-10-17T07:32:41;16.90;99.90
60727;DHT22;46577;49.004;12.120;2022-10-17T07:35:07;17.10;99.90
60727;DHT22;46577;49.004;12.120;2022-10-17T07:37:32;17.30;99.90
60727;DHT22;46577;49.004;12.120;2022-10-17T07:39:58;17.50;99.90
60727;DHT22;46577;49.004;12.120;2022-10-17T07:42:24;17.70;99.90
60727;DHT22;46577;49.004;12.120;2022-10-17T07:44:49;18.00;99.90
60727;DHT22;46577;49.004;12.120;2022-10-17T07:47:15;18.30;99.90
60727;DHT22;46577;49.004;12.120;2022-10-17T07:49:41;18.30;99.90
60727;DHT22;46577;49.004;12.120;2022-10-17T07:52:09;18.70;99.90
60727;DHT22;46577;49.004;12.120;2022-10-17T07:54:36;19.10;99.90
60727;DHT22;46577;49.004;12.120;2022-10-17T07:57:01;19.30;99.90
60727;DHT22;46577;49.004;12.120;2022-10-17T07:59:27;19.50;99.90
60727;DHT22;46577;49.004;12.120;2022-10-17T08:01:55;19.70;99.90
60727;DHT22;46577;49.004;12.120;2022-10-17T08:04:21;20.00;99.90
60727;DHT22;46577;49.004;12.120;2022-10-17T08:06:48;20.40;99.90
60727;DHT22;46577;49.004;12.120;2022-10-17T08:09:14;20.70;99.90
60727;DHT22;46577;49.004;12.120;2022-10-17T08:11:39;21.10;99.90
60727;DHT22;46577;49.004;12.120;2022-10-17T08:14:05;21.50;99.90
60727;DHT22;46577;49.004;12.120;2022-10-17T08:16:31;21.20;99.90
60727;DHT22;46577;49.004;12.120;2022-10-17T08:18:57;20.80;99.90
60727;DHT22;46577;49.004;12.120;2022-10-17T08:21:22;21.00;99.90
60727;DHT22;46577;49.004;12.120;2022-10-17T08:23:48;21.40;99.90
60727;DHT22;46577;49.004;12.120;2022-10-17T08:26:13;22.30;99.90
60727;DHT22;46577;49.004;12.120;2022-10-17T08:28:42;23.30;99.80
60727;DHT22;46577;49.004;12.120;2022-10-17T08:31:10;23.70;98.50
60727;DHT22;46577;49.004;12.120;2022-10-17T08:33:36;24.70;95.70
60727;DHT22;46577;49.004;12.120;2022-10-17T08:36:03;24.90;94.40
60727;DHT22;46577;49.004;12.120;2022-10-17T08:38:29;26.10;92.50
60727;DHT22;46577;49.004;12.120;2022-10-17T08:41:02;27.60;87.30
60727;DHT22;46577;49.004;12.120;2022-10-17T08:43:41;28.90;78.60
60727;DHT22;46577;49.004;12.120;2022-10-17T08:46:09;30.20;70.70
60727;DHT22;46577;49.004;12.120;2022-10-17T08:48:39;30.20;64.60
60727;DHT22;46577;49.004;12.120;2022-10-17T08:51:15;31.60;59.30
60727;DHT22;46577;49.004;12.120;2022-10-17T08:56:39;32.40;53.10
60727;DHT22;46577;49.004;12.120;2022-10-17T08:59:26;32.20;53.40
60727;DHT22;46577;49.004;12.120;2022-10-17T09:02:21;31.90;51.40
60727;DHT22;46577;49.004;12.120;2022-10-17T09:19:28;32.70;50.70
60727;DHT22;46577;49.004;12.120;2022-10-17T09:22:05;33.50;48.80
60727;DHT22;46577;49.004;12.120;2022-10-17T09:24:45;34.00;45.80
60727;DHT22;46577;49.004;12.120;2022-10-17T09:27:25;34.40;46.10
60727;DHT22;46577;49.004;12.120;2022-10-17T09:29:56;34.40;44.80
60727;DHT22;46577;49.004;12.120;2022-10-17T09:32:24;33.30;46.40
60727;DHT22;46577;49.004;12.120;2022-10-17T09:34:51;34.60;44.20
60727;DHT22;46577;49.004;12.120;2022-10-17T09:37:18;34.50;44.10
60727;DHT22;46577;49.004;12.120;2022-10-17T09:39:44;33.40;45.40
60727;DHT22;46577;49.004;12.120;2022-10-17T09:42:13;33.70;46.60
60727;DHT22;46577;49.004;12.120;2022-10-17T09:44:53;35.40;43.00
60727;DHT22;46577;49.004;12.120;2022-10-17T09:50:27;37.60;40.10
60727;DHT22;46577;49.004;12.120;2022-10-17T09:52:54;38.40;37.40
60727;DHT22;46577;49.004;12.120;2022-10-17T09:55:38;39.00;36.10
60727;DHT22;46577;49.004;12.120;2022-10-17T09:58:06;39.30;35.70
60727;DHT22;46577;49.004;12.120;2022-10-17T10:00:38;39.70;35.00
60727;DHT22;46577;49.004;12.120;2022-10-17T10:05:40;40.10;34.60
60727;DHT22;46577;49.004;12.120;2022-10-17T10:08:13;40.00;34.70
60727;DHT22;46577;49.004;12.120;2022-10-17T10:10:40;40.00;34.10
60727;DHT22;46577;49.004;12.120;2022-10-17T10:15:38;41.00;32.90
60727;DHT22;46577;49.004;12.120;2022-10-17T10:18:33;41.00;32.00
60727;DHT22;46577;49.004;12.120;2022-10-17T10:23:36;41.20;31.30
60727;DHT22;46577;49.004;12.120;2022-10-17T10:26:19;39.90;32.80
60727;DHT22;46577;49.004;12.120;2022-10-17T10:29:18;38.60;35.40
60727;DHT22;46577;49.004;12.120;2022-10-17T10:31:45;38.10;35.50
60727;DHT22;46577;49.004;12.120;2022-10-17T10:34:26;36.80;37.20
60727;DHT22;46577;49.004;12.120;2022-10-17T10:37:03;36.40;38.20
60727;DHT22;46577;49.004;12.120;2022-10-17T10:44:47;35.70;41.20
60727;DHT22;46577;49.004;12.120;2022-10-17T10:47:20;36.20;40.40
60727;DHT22;46577;49.004;12.120;2022-10-17T10:49:46;36.60;38.10
60727;DHT22;46577;49.004;12.120;2022-10-17T10:52:23;37.00;36.90
60727;DHT22;46577;49.004;12.120;2022-10-17T10:55:02;37.60;37.90
60727;DHT22;46577;49.004;12.120;2022-10-17T10:57:29;38.40;35.80
60727;DHT22;46577;49.004;12.120;2022-10-17T11:00:14;39.00;34.20
60727;DHT22;46577;49.004;12.120;2022-10-17T11:05:19;38.90;34.60
60727;DHT22;46577;49.004;12.120;2022-10-17T11:07:59;38.10;35.70
60727;DHT22;46577;49.004;12.120;2022-10-17T11:13:38;39.10;33.50
60727;DHT22;46577;49.004;12.120;2022-10-17T11:16:45;38.60;34.30
60727;DHT22;46577;49.004;12.120;2022-10-17T11:19:47;37.70;35.30
60727;DHT22;46577;49.004;12.120;2022-10-17T11:22:39;38.20;35.20
60727;DHT22;46577;49.004;12.120;2022-10-17T11:27:46;38.20;33.90
60727;DHT22;46577;49.004;12.120;2022-10-17T11:30:13;37.60;35.30
60727;DHT22;46577;49.004;12.120;2022-10-17T11:35:24;38.70;35.30
60727;DHT22;46577;49.004;12.120;2022-10-17T11:40:34;38.50;33.30
60727;DHT22;46577;49.004;12.120;2022-10-17T11:43:27;36.80;35.30
60727;DHT22;46577;49.004;12.120;2022-10-17T11:45:59;35.10;38.20
60727;DHT22;46577;49.004;12.120;2022-10-17T11:48:30;34.60;39.70
60727;DHT22;46577;49.004;12.120;2022-10-17T11:51:06;34.50;41.20
60727;DHT22;46577;49.004;12.120;2022-10-17T11:53:45;34.30;40.70
60727;DHT22;46577;49.004;12.120;2022-10-17T11:56:16;33.90;42.10
60727;DHT22;46577;49.004;12.120;2022-10-17T12:01:43;33.30;41.40
60727;DHT22;46577;49.004;12.120;2022-10-17T12:04:52;33.10;41.90
60727;DHT22;46577;49.004;12.120;2022-10-17T12:07:35;33.10;42.90
60727;DHT22;46577;49.004;12.120;2022-10-17T12:10:24;32.80;41.20
60727;DHT22;46577;49.004;12.120;2022-10-17T12:12:51;31.90;43.80
60727;DHT22;46577;49.004;12.120;2022-10-17T12:17:56;31.30;45.70
60727;DHT22;46577;49.004;12.120;2022-10-17T12:20:26;31.30;46.00
60727;DHT22;46577;49.004;12.120;2022-10-17T12:23:04;31.50;46.10
60727;DHT22;46577;49.004;12.120;2022-10-17T12:25:35;30.90;47.30
60727;DHT22;46577;49.004;12.120;2022-10-17T12:28:24;30.80;47.20
60727;DHT22;46577;49.004;12.120;2022-10-17T12:30:56;30.80;47.30
60727;DHT22;46577;49.004;12.120;2022-10-17T12:33:34;30.00;47.70
60727;DHT22;46577;49.004;12.120;2022-10-17T12:36:35;29.40;49.80
60727;DHT22;46577;49.004;12.120;2022-10-17T12:49:41;28.40;54.10
60727;DHT22;46577;49.004;12.120;2022-10-17T12:54:45;29.00;52.60
60727;DHT22;46577;49.004;12.120;2022-10-17T12:59:52;29.00;53.30
60727;DHT22;46577;49.004;12.120;2022-10-17T13:02:20;28.60;53.40
60727;DHT22;46577;49.004;12.120;2022-10-17T13:04:48;28.20;53.70
60727;DHT22;46577;49.004;12.120;2022-10-17T13:07:19;27.90;55.00
60727;DHT22;46577;49.004;12.120;2022-10-17T13:09:45;27.50;55.40
60727;DHT22;46577;49.004;12.120;2022-10-17T13:12:14;27.20;57.40
60727;DHT22;46577;49.004;12.120;2022-10-17T13:14:44;26.80;58.10
60727;DHT22;46577;49.004;12.120;2022-10-17T13:17:40;26.30;59.60
60727;DHT22;46577;49.004;12.120;2022-10-17T13:20:19;26.30;60.30
60727;DHT22;46577;49.004;12.120;2022-10-17T13:22:45;26.20;60.90
60727;DHT22;46577;49.004;12.120;2022-10-17T13:25:16;25.80;62.80
60727;DHT22;46577;49.004;12.120;2022-10-17T13:27:43;25.80;63.20
60727;DHT22;46577;49.004;12.120;2022-10-17T13:30:27;25.50;64.10
60727;DHT22;46577;49.004;12.120;2022-10-17T13:32:53;25.60;65.20
60727;DHT22;46577;49.004;12.120;2022-10-17T13:35:29;25.50;65.30
60727;DHT22;46577;49.004;12.120;2022-10-17T13:37:56;25.00;67.20
60727;DHT22;46577;49.004;12.120;2022-10-17T13:40:25;25.10;69.60
60727;DHT22;46577;49.004;12.120;2022-10-17T13:42:53;25.00;68.60
60727;DHT22;46577;49.004;12.120;2022-10-17T13:45:29;24.70;70.40
60727;DHT22;46577;49.004;12.120;2022-10-17T13:47:59;24.60;72.30
60727;DHT22;46577;49.004;12.120;2022-10-17T13:50:33;24.50;73.50
60727;DHT22;46577;49.004;12.120;2022-10-17T13:55:54;23.90;76.50
60727;DHT22;46577;49.004;12.120;2022-10-17T13:58:20;23.80;78.70
60727;DHT22;46577;49.004;12.120;2022-10-17T14:00:46;25.30;82.30
60727;DHT22;46577;49.004;12.120;2022-10-17T14:03:13;24.10;81.20
60727;DHT22;46577;49.004;12.120;2022-10-17T14:06:10;23.60;83.80
60727;DHT22;46577;49.004;12.120;2022-10-17T14:08:38;23.10;87.80
60727;DHT22;46577;49.004;12.120;2022-10-17T14:13:58;22.90;91.00
60727;DHT22;46577;49.004;12.120;2022-10-17T14:16:25;23.10;91.30
60727;DHT22;46577;49.004;12.120;2022-10-17T14:18:52;23.40;92.30
60727;DHT22;46577;49.004;12.120;2022-10-17T14:21:23;23.50;91.80
60727;DHT22;46577;49.004;12.120;2022-10-17T14:23:51;23.60;91.80
60727;DHT22;46577;49.004;12.120;2022-10-17T14:26:20;23.50;92.10
60727;DHT22;46577;49.004;12.120;2022-10-17T14:29:05;23.50;92.40
60727;DHT22;46577;49.004;12.120;2022-10-17T14:31:33;23.50;92.80
60727;DHT22;46577;49.004;12.120;2022-10-17T14:34:00;23.60;93.10
60727;DHT22;46577;49.004;12.120;2022-10-17T14:36:38;23.50;93.10
60727;DHT22;46577;49.004;12.120;2022-10-17T14:39:07;23.40;93.90
60727;DHT22;46577;49.004;12.120;2022-10-17T14:41:43;23.40;93.60
60727;DHT22;46577;49.004;12.120;2022-10-17T14:44:20;23.40;94.00
60727;DHT22;46577;49.004;12.120;2022-10-17T14:46:49;23.20;94.50
60727;DHT22;46577;49.004;12.120;2022-10-17T14:49:22;22.90;95.60
60727;DHT22;46577;49.004;12.120;2022-10-17T14:54:36;22.50;97.00
60727;DHT22;46577;49.004;12.120;2022-10-17T14:57:13;22.40;97.90
60727;DHT22;46577;49.004;12.120;2022-10-17T14:59:39;22.50;97.90
60727;DHT22;46577;49.004;12.120;2022-10-17T15:02:04;22.40;98.30
60727;DHT22;46577;49.004;12.120;2022-10-17T15:04:30;22.20;98.70
60727;DHT22;46577;49.004;12.120;2022-10-17T15:06:55;22.30;98.90
60727;DHT22;46577;49.004;12.120;2022-10-17T15:09:21;22.30;99.10
60727;DHT22;46577;49.004;12.120;2022-10-17T15:11:48;22.30;99.40
60727;DHT22;46577;49.004;12.120;2022-10-17T15:14:13;22.20;99.80
60727;DHT22;46577;49.004;12.120;2022-10-17T15:16:39;22.00;99.90
60727;DHT22;46577;49.004;12.120;2022-10-17T15:19:04;22.00;99.90
60727;DHT22;46577;49.004;12.120;2022-10-17T15:21:30;21.70;99.90
60727;DHT22;46577;49.004;12.120;2022-10-17T15:23:56;21.60;99.90
60727;DHT22;46577;49.004;12.120;2022-10-17T15:26:25;21.50;99.90
60727;DHT22;46577;49.004;12.120;2022-10-17T15:28:52;21.40;99.90
60727;DHT22;46577;49.004;12.120;2022-10-17T15:31:19;21.40;99.90
60727;DHT22;46577;49.004;12.120;2022-10-17T15:33:46;21.30;99.90
60727;DHT22;46577;49.004;12.120;2022-10-17T15:36:29;21.20;99.90
60727;DHT22;46577;49.004;12.120;2022-10-17T15:38:57;21.10;99.90
60727;DHT22;46577;49.004;12.120;2022-10-17T15:41:25;21.10;99.90
60727;DHT22;46577;49.004;12.120;2022-10-17T15:43:51;21.10;99.90
60727;DHT22;46577;49.004;12.120;2022-10-17T15:46:21;21.10;99.90
60727;DHT22;46577;49.004;12.120;2022-10-17T15:48:48;21.10;99.90
60727;DHT22;46577;49.004;12.120;2022-10-17T15:51:14;21.10;99.90
60727;DHT22;46577;49.004;12.120;2022-10-17T15:53:40;21.00;99.90
60727;DHT22;46577;49.004;12.120;2022-10-17T15:56:06;20.90;99.90
60727;DHT22;46577;49.004;12.120;2022-10-17T15:58:37;20.90;99.90
60727;DHT22;46577;49.004;12.120;2022-10-17T16:01:05;20.70;99.90
60727;DHT22;46577;49.004;12.120;2022-10-17T16:03:31;20.60;99.90
60727;DHT22;46577;49.004;12.120;2022-10-17T16:05:57;20.50;99.90
60727;DHT22;46577;49.004;12.120;2022-10-17T16:08:23;20.40;99.90
60727;DHT22;46577;49.004;12.120;2022-10-17T16:10:49;20.30;99.90
60727;DHT22;46577;49.004;12.120;2022-10-17T16:13:21;20.20;99.90
60727;DHT22;46577;49.004;12.120;2022-10-17T16:15:47;20.10;99.90
60727;DHT22;46577;49.004;12.120;2022-10-17T16:18:13;20.00;99.90
60727;DHT22;46577;49.004;12.120;2022-10-17T16:20:39;20.00;99.90
60727;DHT22;46577;49.004;12.120;2022-10-17T16:23:04;19.80;99.90
60727;DHT22;46577;49.004;12.120;2022-10-17T16:25:32;19.70;99.90
60727;DHT22;46577;49.004;12.120;2022-10-17T16:27:59;19.60;99.90
60727;DHT22;46577;49.004;12.120;2022-10-17T16:30:27;19.50;99.90
60727;DHT22;46577;49.004;12.120;2022-10-17T16:32:53;19.30;99.90
60727;DHT22;46577;49.004;12.120;2022-10-17T16:35:23;19.20;99.90
60727;DHT22;46577;49.004;12.120;2022-10-17T16:37:49;16.80;99.90
60727;DHT22;46577;49.004;12.120;2022-10-17T16:40:15;19.00;99.90
60727;DHT22;46577;49.004;12.120;2022-10-17T16:42:40;18.90;99.90
60727;DHT22;46577;49.004;12.120;2022-10-17T16:45:06;18.80;99.90
60727;DHT22;46577;49.004;12.120;2022-10-17T16:47:32;18.70;99.90
60727;DHT22;46577;49.004;12.120;2022-10-17T16:49:58;18.70;99.90
60727;DHT22;46577;49.004;12.120;2022-10-17T16:52:23;18.50;99.90
60727;DHT22;46577;49.004;12.120;2022-10-17T16:54:49;18.40;99.90
60727;DHT22;46577;49.004;12.120;2022-10-17T16:57:15;18.30;99.90
60727;DHT22;46577;49.004;12.120;2022-10-17T16:59:41;18.30;99.90
60727;DHT22;46577;49.004;12.120;2022-10-17T17:02:09;18.20;99.90
60727;DHT22;46577;49.004;12.120;2022-10-17T17:04:35;18.10;99.90
60727;DHT22;46577;49.004;12.120;2022-10-17T17:07:00;18.00;99.90
60727;DHT22;46577;49.004;12.120;2022-10-17T17:09:26;18.00;99.90
60727;DHT22;46577;49.004;12.120;2022-10-17T17:11:52;17.90;99.90
60727;DHT22;46577;49.004;12.120;2022-10-17T17:14:17;17.80;99.90